createdAt,value
2023-05-11T00:01:54.549Z,1.17
2023-05-11T00:04:42.095Z,1.10
2023-05-11T00:07:29.337Z,5.80
2023-05-11T00:10:17.746Z,4.40
2023-05-11T00:13:11.012Z,2.10
2023-05-11T00:15:58.428Z,2.10
2023-05-11T00:18:49.596Z,1.40
2023-05-11T00:21:39.099Z,1.20
2023-05-11T00:24:27.430Z,1.23
2023-05-11T00:27:14.797Z,1.23
2023-05-11T00:30:01.992Z,1.10
2023-05-11T00:32:57.726Z,1.30
2023-05-11T00:35:44.938Z,1.20
2023-05-11T00:38:32.315Z,0.90
2023-05-11T00:41:22.116Z,1.20
2023-05-11T00:44:09.399Z,1.30
2023-05-11T00:50:12.496Z,1.10
2023-05-11T00:53:02.373Z,1.20
2023-05-11T00:55:50.795Z,1.10
2023-05-11T00:58:42.281Z,1.10
2023-05-11T01:01:31.017Z,1.58
2023-05-11T01:04:19.302Z,1.05
2023-05-11T01:07:09.593Z,1.20
2023-05-11T01:10:32.279Z,1.25
2023-05-11T01:13:58.524Z,1.20
2023-05-11T01:17:05.975Z,1.20
2023-05-11T01:20:01.755Z,1.40
2023-05-11T01:23:08.315Z,1.40
2023-05-11T01:26:33.351Z,1.15
2023-05-11T01:29:50.409Z,1.30
2023-05-11T01:32:41.764Z,1.20
2023-05-11T01:35:37.874Z,1.10
2023-05-11T01:38:34.606Z,1.20
2023-05-11T01:41:23.729Z,1.30
2023-05-11T01:44:14.285Z,1.48
2023-05-11T01:47:06.415Z,1.38
2023-05-11T01:49:54.662Z,1.20
2023-05-11T01:53:13.782Z,1.45
2023-05-11T01:56:13.205Z,1.58
2023-05-11T01:59:19.354Z,1.15
2023-05-11T02:02:08.506Z,1.48
2023-05-11T02:05:00.889Z,1.75
2023-05-11T02:07:50.605Z,1.60
2023-05-11T02:10:40.074Z,1.75
2023-05-11T02:13:28.954Z,1.65
2023-05-11T02:16:29.773Z,1.33
2023-05-11T02:28:13.255Z,1.30
2023-05-11T02:31:14.439Z,1.73
2023-05-11T02:34:21.127Z,2.03
2023-05-11T02:37:48.489Z,1.80
2023-05-11T02:40:46.379Z,1.60
2023-05-11T02:44:15.498Z,1.67
2023-05-11T02:47:04.771Z,1.90
2023-05-11T02:49:54.512Z,1.80
2023-05-11T02:52:49.052Z,1.90
2023-05-11T02:55:36.349Z,1.88
2023-05-11T02:58:24.139Z,1.70
2023-05-11T03:01:13.317Z,2.25
2023-05-11T03:04:03.621Z,1.95
2023-05-11T03:06:50.841Z,2.00
2023-05-11T03:09:38.658Z,1.98
2023-05-11T03:12:27.530Z,2.05
2023-05-11T03:15:16.150Z,1.75
2023-05-11T03:18:05.437Z,1.90
2023-05-11T03:20:54.221Z,1.90
2023-05-11T03:23:41.880Z,1.88
2023-05-11T03:26:32.181Z,2.38
2023-05-11T03:29:22.950Z,2.00
2023-05-11T03:32:10.192Z,2.28
2023-05-11T03:34:57.602Z,2.10
2023-05-11T03:37:46.313Z,2.10
2023-05-11T03:40:37.159Z,2.20
2023-05-11T03:43:26.650Z,2.40
2023-05-11T03:46:16.981Z,2.40
2023-05-11T03:49:05.821Z,2.50
2023-05-11T03:51:53.498Z,2.70
2023-05-11T03:54:46.385Z,2.47
2023-05-11T03:57:34.442Z,2.28
2023-05-11T04:00:22.593Z,2.28
2023-05-11T04:03:18.297Z,2.40
2023-05-11T04:06:08.093Z,2.30
2023-05-11T04:08:57.866Z,2.30
2023-05-11T04:11:45.083Z,2.42
2023-05-11T04:14:32.277Z,2.42
2023-05-11T04:17:19.408Z,2.20
2023-05-11T04:20:08.345Z,2.38
2023-05-11T04:22:55.654Z,2.58
2023-05-11T04:25:42.876Z,3.13
2023-05-11T04:28:32.454Z,2.38
2023-05-11T04:31:19.728Z,2.47
2023-05-11T04:34:08.451Z,2.33
2023-05-11T04:36:55.806Z,2.35
2023-05-11T04:39:42.982Z,2.45
2023-05-11T04:42:33.009Z,2.53
2023-05-11T04:45:20.261Z,2.50
2023-05-11T04:48:09.979Z,2.38
2023-05-11T04:50:57.673Z,2.67
2023-05-11T04:53:44.913Z,2.60
2023-05-11T04:56:34.140Z,2.80
2023-05-11T04:59:21.390Z,2.45
2023-05-11T05:02:08.904Z,2.45
2023-05-11T05:04:57.604Z,2.40
2023-05-11T05:07:46.120Z,4.32
2023-05-11T05:10:33.720Z,5.47
2023-05-11T05:13:20.907Z,3.72
2023-05-11T05:16:10.555Z,2.38
2023-05-11T05:18:57.844Z,2.80
2023-05-11T05:21:45.137Z,3.30
2023-05-11T05:24:35.262Z,2.83
2023-05-11T05:27:22.553Z,2.65
2023-05-11T05:30:12.367Z,3.00
2023-05-11T05:32:59.623Z,2.60
2023-05-11T05:35:47.223Z,2.15
2023-05-11T05:38:44.344Z,2.70
2023-05-11T05:41:45.928Z,2.80
2023-05-11T05:44:50.279Z,2.38
2023-05-11T05:47:55.612Z,2.30
2023-05-11T05:54:16.172Z,2.25
2023-05-11T05:59:05.869Z,2.28
2023-05-11T06:02:09.783Z,2.05
2023-05-11T06:05:24.449Z,1.60
2023-05-11T06:08:40.608Z,1.88
2023-05-11T06:23:10.163Z,2.33
2023-05-11T06:36:35.260Z,1.90
2023-05-11T06:52:10.147Z,2.00
2023-05-11T06:55:50.898Z,2.70
2023-05-11T06:59:33.601Z,2.38
2023-05-11T07:05:53.882Z,2.25
2023-05-11T07:20:18.974Z,1.40
2023-05-11T07:23:13.165Z,1.85
2023-05-11T07:26:22.303Z,1.33
2023-05-11T07:29:09.731Z,1.33
2023-05-11T07:32:11.008Z,1.60
2023-05-11T07:34:58.544Z,1.60
2023-05-11T07:37:45.951Z,2.17
2023-05-11T07:40:33.333Z,1.52
2023-05-11T07:43:20.590Z,1.70
2023-05-11T07:46:07.978Z,2.00
2023-05-11T07:49:07.252Z,1.90
2023-05-11T07:52:03.004Z,2.05
2023-05-11T07:54:51.203Z,2.28
2023-05-11T07:57:38.667Z,2.08
2023-05-11T08:00:26.169Z,1.70
2023-05-11T08:03:17.836Z,1.67
2023-05-11T08:06:06.013Z,1.80
2023-05-11T08:08:53.755Z,1.80
2023-05-11T08:11:42.394Z,1.55
2023-05-11T08:14:29.716Z,1.85
2023-05-11T08:17:17.116Z,1.65
2023-05-11T08:20:06.920Z,1.42
2023-05-11T08:22:54.576Z,1.83
2023-05-11T08:25:41.989Z,1.90
2023-05-11T08:28:29.447Z,1.70
2023-05-11T08:31:19.771Z,2.45
2023-05-11T08:34:18.614Z,1.83
2023-05-11T08:37:06.877Z,1.73
2023-05-11T08:39:54.808Z,1.40
2023-05-11T08:42:47.226Z,1.50
2023-05-11T08:45:38.653Z,1.30
2023-05-11T08:48:27.858Z,1.80
2023-05-11T08:51:15.745Z,1.40
2023-05-11T08:54:03.862Z,1.60
2023-05-11T08:56:52.094Z,1.48
2023-05-11T08:59:40.895Z,1.35
2023-05-11T09:02:29.165Z,1.27
2023-05-11T09:05:27.612Z,1.30
2023-05-11T09:08:18.298Z,1.35
2023-05-11T09:11:06.684Z,1.60
2023-05-11T09:13:54.279Z,1.85
2023-05-11T09:16:41.974Z,1.60
2023-05-11T09:19:29.619Z,1.10
2023-05-11T09:22:17.065Z,1.60
2023-05-11T09:25:04.974Z,1.38
2023-05-11T09:27:52.724Z,1.30
2023-05-11T09:30:40.190Z,1.40
2023-05-11T09:33:27.902Z,1.27
2023-05-11T09:36:24.797Z,1.50
2023-05-11T09:39:16.155Z,1.10
2023-05-11T09:42:18.103Z,1.20
2023-05-11T09:45:06.727Z,1.30
2023-05-11T09:47:54.002Z,1.30
2023-05-11T09:50:41.399Z,1.20
2023-05-11T09:53:39.171Z,1.50
2023-05-11T09:56:58.533Z,1.20
2023-05-11T09:59:50.843Z,1.58
2023-05-11T10:02:46.498Z,1.50
2023-05-11T10:05:38.375Z,1.50
2023-05-11T10:08:34.545Z,1.90
2023-05-11T10:11:25.496Z,1.50
2023-05-11T10:14:19.252Z,1.25
2023-05-11T10:20:20.995Z,1.10
2023-05-11T10:23:19.296Z,1.08
2023-05-11T10:29:27.831Z,1.20
2023-05-11T10:32:51.608Z,1.48
2023-05-11T10:36:47.264Z,1.65
2023-05-11T10:39:50.806Z,1.23
2023-05-11T10:42:47.316Z,1.40
2023-05-11T10:45:40.502Z,1.05
2023-05-11T10:49:00.258Z,1.25
2023-05-11T10:52:18.950Z,1.48
2023-05-11T10:55:24.294Z,1.10
2023-05-11T10:58:19.589Z,1.00
2023-05-11T11:01:40.920Z,0.82
2023-05-11T11:05:10.966Z,0.93
2023-05-11T11:12:39.102Z,1.05
2023-05-11T11:16:25.646Z,1.20
2023-05-11T11:19:31.408Z,1.15
2023-05-11T11:23:00.549Z,1.20
2023-05-11T11:30:59.211Z,0.80
2023-05-11T11:34:23.714Z,0.90
2023-05-11T11:37:52.549Z,0.80
2023-05-11T11:41:29.651Z,0.82
2023-05-11T11:44:25.803Z,0.70
2023-05-11T11:48:12.408Z,1.05
2023-05-11T11:52:22.895Z,0.90
2023-05-11T12:23:39.473Z,0.75
2023-05-11T12:26:30.253Z,0.60
2023-05-11T12:30:08.147Z,0.88
2023-05-11T12:32:57.871Z,0.88
2023-05-11T12:35:46.356Z,0.75
2023-05-11T12:43:53.056Z,0.50
2023-05-11T12:58:29.233Z,0.60
2023-05-11T13:06:47.596Z,0.70
2023-05-11T13:09:56.249Z,0.70
2023-05-11T13:53:46.006Z,0.93
2023-05-11T15:02:15.265Z,0.80
2023-05-11T15:04:38.173Z,0.47
2023-05-11T15:07:25.767Z,0.77
2023-05-11T15:10:48.968Z,0.70
2023-05-11T15:16:24.138Z,0.70
2023-05-11T15:19:12.071Z,0.70
2023-05-11T15:22:01.958Z,0.60
2023-05-11T15:24:49.292Z,0.57
2023-05-11T15:27:36.790Z,0.60
2023-05-11T15:30:26.634Z,1.00
2023-05-11T15:33:15.756Z,0.50
2023-05-11T15:36:06.632Z,1.00
2023-05-11T15:38:58.564Z,1.20
2023-05-11T15:41:50.781Z,0.75
2023-05-11T15:44:38.245Z,0.68
2023-05-11T15:49:19.796Z,0.95
2023-05-11T15:51:46.036Z,0.73
2023-05-11T15:57:47.533Z,0.65
2023-05-11T16:00:43.250Z,0.82
2023-05-11T16:03:31.088Z,0.85
2023-05-11T16:06:24.560Z,0.77
2023-05-11T16:09:58.686Z,0.60
2023-05-11T16:13:07.511Z,0.73
2023-05-11T16:20:03.593Z,0.80
2023-05-11T16:22:53.388Z,0.60
2023-05-11T16:25:53.145Z,0.77
2023-05-11T16:28:42.356Z,0.80
2023-05-11T16:31:29.775Z,0.70
2023-05-11T16:34:17.150Z,0.80
2023-05-11T16:37:04.601Z,0.70
2023-05-11T16:39:52.258Z,0.70
2023-05-11T16:42:39.657Z,0.90
2023-05-11T16:45:27.091Z,0.73
2023-05-11T16:48:14.521Z,0.70
2023-05-11T16:51:02.122Z,0.70
2023-05-11T16:53:51.818Z,0.98
2023-05-11T16:56:39.240Z,0.90
2023-05-11T16:59:29.192Z,0.90
2023-05-11T17:02:16.407Z,0.90
2023-05-11T17:05:08.972Z,1.08
2023-05-11T17:07:58.410Z,0.90
2023-05-11T17:10:46.339Z,1.00
2023-05-11T17:13:36.419Z,1.05
2023-05-11T17:16:26.504Z,1.10
2023-05-11T17:19:16.668Z,1.27
2023-05-11T17:22:10.293Z,1.50
2023-05-11T17:24:59.038Z,1.30
2023-05-11T17:27:49.630Z,1.30
2023-05-11T17:30:48.039Z,1.35
2023-05-11T17:33:36.239Z,1.30
2023-05-11T17:36:30.149Z,1.33
2023-05-11T17:39:19.216Z,1.30
2023-05-11T17:42:15.184Z,1.50
2023-05-11T17:45:02.866Z,1.42
2023-05-11T17:47:50.756Z,1.90
2023-05-11T17:50:40.764Z,1.73
2023-05-11T17:53:31.268Z,1.67
2023-05-11T17:56:19.444Z,1.80
2023-05-11T18:03:24.886Z,1.58
2023-05-11T18:06:12.362Z,1.83
2023-05-11T18:09:00.722Z,2.40
2023-05-11T18:11:51.035Z,1.88
2023-05-11T18:14:46.397Z,2.00
2023-05-11T18:17:36.342Z,1.85
2023-05-11T18:20:24.282Z,2.00
2023-05-11T18:23:14.363Z,2.15
2023-05-11T18:26:01.750Z,1.73
2023-05-11T18:28:49.846Z,1.92
2023-05-11T18:31:37.605Z,1.90
2023-05-11T18:34:24.878Z,1.90
2023-05-11T18:37:12.756Z,1.70
2023-05-11T18:40:02.166Z,1.88
2023-05-11T18:42:50.945Z,2.10
2023-05-11T18:45:41.025Z,2.00
2023-05-11T18:48:28.398Z,2.08
2023-05-11T18:51:19.545Z,2.55
2023-05-11T18:54:07.398Z,2.55
2023-05-11T18:57:01.355Z,2.88
2023-05-11T18:59:48.827Z,2.28
2023-05-11T19:02:36.933Z,3.05
2023-05-11T19:05:24.758Z,2.90
2023-05-11T19:08:12.663Z,3.10
2023-05-11T19:11:17.364Z,2.75
2023-05-11T19:14:04.993Z,3.03
2023-05-11T19:16:52.368Z,2.55
2023-05-11T19:19:39.745Z,3.40
2023-05-11T19:22:27.156Z,3.20
2023-05-11T19:25:14.646Z,3.10
2023-05-11T19:28:02.062Z,3.25
2023-05-11T19:30:54.384Z,3.17
2023-05-11T19:33:41.950Z,3.35
2023-05-11T19:36:30.089Z,3.67
2023-05-11T19:39:17.896Z,3.22
2023-05-11T19:42:07.256Z,3.10
2023-05-11T19:44:58.130Z,3.03
2023-05-11T19:47:46.440Z,2.85
2023-05-11T19:50:33.757Z,3.30
2023-05-11T19:53:21.028Z,3.03
2023-05-11T19:56:10.769Z,3.50
2023-05-11T19:59:00.484Z,3.53
2023-05-11T20:01:50.035Z,3.70
2023-05-11T20:04:38.060Z,4.00
2023-05-11T20:07:25.536Z,4.30
2023-05-11T20:10:13.266Z,3.85
2023-05-11T20:13:04.154Z,4.70
2023-05-11T20:15:52.027Z,4.88
2023-05-11T20:18:39.407Z,5.05
2023-05-11T20:21:29.776Z,5.43
2023-05-11T20:24:17.041Z,5.25
2023-05-11T20:27:09.518Z,5.72
2023-05-11T20:30:02.335Z,4.80
2023-05-11T20:35:39.947Z,5.30
2023-05-11T20:38:27.474Z,7.00
2023-05-11T20:41:14.895Z,6.63
2023-05-11T20:44:02.304Z,6.15
2023-05-11T20:46:49.530Z,6.13
2023-05-11T20:49:39.329Z,6.65
2023-05-11T20:52:26.977Z,7.22
2023-05-11T20:55:14.337Z,6.88
2023-05-11T20:58:05.182Z,6.38
2023-05-11T21:00:52.424Z,6.85
2023-05-11T21:03:40.585Z,8.00
2023-05-11T21:06:30.026Z,8.52
2023-05-11T21:09:20.045Z,9.07
2023-05-11T21:12:10.075Z,9.27
2023-05-11T21:14:57.745Z,8.90
2023-05-11T21:17:47.646Z,9.00
2023-05-11T21:20:35.235Z,9.23
2023-05-11T21:23:22.581Z,8.98
2023-05-11T21:26:18.609Z,8.65
2023-05-11T21:29:08.463Z,8.13
2023-05-11T21:31:55.924Z,8.27
2023-05-11T21:34:43.911Z,7.57
2023-05-11T21:37:34.130Z,7.97
2023-05-11T21:40:21.695Z,8.48
2023-05-11T21:43:11.933Z,8.68
2023-05-11T21:46:02.715Z,7.75
2023-05-11T21:48:49.916Z,8.07
2023-05-11T21:51:37.139Z,8.82
2023-05-11T21:54:24.813Z,8.15
2023-05-11T21:57:17.240Z,7.47
2023-05-11T22:00:05.271Z,8.23
2023-05-11T22:02:52.668Z,9.32
2023-05-11T22:05:40.348Z,8.32
2023-05-11T22:08:30.416Z,9.05
2023-05-11T22:11:19.461Z,8.90
2023-05-11T22:14:06.871Z,8.98
2023-05-11T22:16:54.071Z,7.82
2023-05-11T22:19:41.806Z,9.30
2023-05-11T22:22:28.951Z,7.90
2023-05-11T22:25:16.511Z,10.63
2023-05-11T22:28:03.812Z,9.40
2023-05-11T22:30:51.056Z,9.38
2023-05-11T22:33:38.319Z,10.52
2023-05-11T22:36:28.291Z,10.43
2023-05-11T22:39:15.624Z,10.77
2023-05-11T22:42:03.524Z,11.60
2023-05-11T22:44:53.072Z,11.70
2023-05-11T22:47:40.486Z,10.52
2023-05-11T22:50:28.262Z,9.75
2023-05-11T22:53:15.455Z,10.20
2023-05-11T22:56:06.432Z,11.57
2023-05-11T22:58:55.920Z,13.15
2023-05-11T23:01:45.577Z,13.73
2023-05-11T23:04:32.930Z,15.30
2023-05-11T23:07:20.443Z,13.30
2023-05-11T23:10:07.977Z,13.98
2023-05-11T23:12:55.914Z,14.38
2023-05-11T23:15:43.513Z,12.35
2023-05-11T23:18:31.652Z,13.00
2023-05-11T23:21:19.185Z,13.25
2023-05-11T23:24:07.509Z,13.90
2023-05-11T23:26:55.357Z,15.55
2023-05-11T23:29:42.555Z,15.70
2023-05-11T23:32:30.048Z,17.73
2023-05-11T23:35:17.425Z,16.48
2023-05-11T23:38:07.206Z,13.55
2023-05-11T23:40:54.970Z,11.68
2023-05-11T23:43:42.208Z,11.55
2023-05-11T23:46:32.721Z,12.30
2023-05-11T23:49:19.969Z,13.75
2023-05-11T23:52:07.500Z,13.00
2023-05-11T23:54:54.694Z,15.57
2023-05-11T23:57:41.892Z,17.85
